Time;durP1;ratioP1;P1;durP2;ratioP2;P2;SDS_P1;SDS_P2;PMS_P1;PMS_P2;Temp;Humidity;BMP_temperature;BMP_pressure;BME280_temperature;BME280_humidity;BME280_pressure;Samples;Min_cycle;Max_cycle;Signal;HPM_P1;HPM_P2
2023/07/15 00:01:45;;;;;;;4.77;4.33;;;20.40;99.90;;;;;;4997422;28;20570;-57
2023/07/15 00:04:14;;;;;;;4.60;4.30;;;20.40;99.90;;;;;;4994239;28;20496;-57
2023/07/15 00:06:43;;;;;;;5.33;4.93;;;20.40;99.90;;;;;;4997636;28;20514;-58
2023/07/15 00:09:11;;;;;;;5.03;4.63;;;20.40;99.90;;;;;;4993487;28;20523;-58
2023/07/15 00:11:41;;;;;;;5.10;4.43;;;20.40;99.90;;;;;;4998568;28;20555;-59
2023/07/15 00:14:16;;;;;;;4.67;4.30;;;20.40;99.90;;;;;;4997598;28;20489;-58
2023/07/15 00:16:45;;;;;;;6.80;5.10;;;20.40;99.90;;;;;;4988917;28;20554;-58
2023/07/15 00:19:14;;;;;;;4.97;4.47;;;20.40;99.90;;;;;;4989807;28;20518;-59
2023/07/15 00:21:42;;;;;;;5.30;4.80;;;20.40;99.90;;;;;;4993480;28;20493;-60
2023/07/15 00:24:10;;;;;;;6.03;5.37;;;20.30;99.90;;;;;;4989757;28;20502;-58
2023/07/15 00:26:39;;;;;;;4.93;4.50;;;20.40;99.90;;;;;;4997181;28;20476;-59
2023/07/15 00:29:08;;;;;;;5.33;4.93;;;20.30;99.90;;;;;;4994457;28;20508;-58
2023/07/15 00:31:37;;;;;;;8.67;5.63;;;20.30;99.90;;;;;;4991075;28;20986;-58
2023/07/15 00:34:05;;;;;;;5.80;5.30;;;20.30;99.90;;;;;;4995352;28;20491;-58
2023/07/15 00:36:35;;;;;;;5.67;5.10;;;20.20;99.90;;;;;;4989318;28;20540;-58
2023/07/15 00:39:04;;;;;;;6.10;5.50;;;20.20;99.90;;;;;;4990713;28;20468;-57
2023/07/15 00:41:35;;;;;;;5.20;4.80;;;20.20;99.90;;;;;;4994820;28;21611;-59
2023/07/15 00:44:05;;;;;;;5.37;4.87;;;20.10;99.90;;;;;;4995069;28;21027;-59
2023/07/15 00:47:05;;;;;;;5.93;5.40;;;20.10;99.90;;;;;;4990711;28;20579;-58
2023/07/15 00:49:36;;;;;;;5.40;4.90;;;20.10;99.90;;;;;;4990537;28;20595;-59
2023/07/15 00:52:08;;;;;;;5.13;4.50;;;20.10;99.90;;;;;;4990329;28;20481;-58
2023/07/15 00:54:37;;;;;;;4.47;4.17;;;20.10;99.90;;;;;;4994541;28;20519;-58
2023/07/15 00:57:07;;;;;;;5.03;4.57;;;20.00;99.90;;;;;;4993294;28;20493;-58
2023/07/15 00:59:36;;;;;;;5.20;4.77;;;20.00;99.90;;;;;;4990630;28;20500;-59
2023/07/15 01:02:06;;;;;;;5.27;4.77;;;20.00;99.90;;;;;;4997820;28;20524;-57
2023/07/15 01:04:34;;;;;;;5.57;4.87;;;20.00;99.90;;;;;;4991200;28;20503;-57
2023/07/15 01:07:04;;;;;;;5.53;5.03;;;19.90;99.90;;;;;;4987677;28;20488;-57
2023/07/15 01:09:33;;;;;;;5.33;4.83;;;19.80;99.90;;;;;;4993670;28;20477;-57
2023/07/15 01:12:01;;;;;;;5.17;4.73;;;19.80;99.90;;;;;;4989831;28;20479;-58
2023/07/15 01:14:29;;;;;;;5.87;5.10;;;19.80;99.90;;;;;;4994153;28;20556;-59
2023/07/15 01:16:57;;;;;;;5.70;5.20;;;19.70;99.90;;;;;;4992452;28;20912;-59
2023/07/15 01:19:27;;;;;;;5.47;4.80;;;19.70;99.90;;;;;;4994580;28;20493;-59
2023/07/15 01:21:55;;;;;;;5.47;4.87;;;19.80;99.90;;;;;;4983447;28;21017;-58
2023/07/15 01:24:25;;;;;;;5.00;4.60;;;19.80;99.90;;;;;;4993172;28;20530;-58
2023/07/15 01:26:56;;;;;;;4.67;4.37;;;19.80;99.90;;;;;;4993464;28;20905;-58
2023/07/15 01:29:24;;;;;;;4.87;4.37;;;19.70;99.90;;;;;;4993902;28;20507;-57
2023/07/15 01:31:52;;;;;;;5.53;4.77;;;19.80;99.90;;;;;;4994022;28;20531;-58
2023/07/15 01:34:21;;;;;;;5.13;4.73;;;19.80;99.90;;;;;;4994307;28;20497;-58
2023/07/15 01:36:49;;;;;;;5.27;4.57;;;19.70;99.90;;;;;;4985169;28;20902;-57
2023/07/15 01:39:17;;;;;;;5.90;5.10;;;19.70;99.90;;;;;;4991991;28;20511;-58
2023/07/15 01:41:46;;;;;;;5.43;4.93;;;19.70;99.90;;;;;;4993092;28;20520;-58
2023/07/15 01:44:16;;;;;;;7.00;4.80;;;19.70;99.90;;;;;;4994396;28;21547;-58
2023/07/15 01:46:44;;;;;;;4.87;4.27;;;19.60;99.90;;;;;;4985150;28;20504;-58
2023/07/15 01:49:12;;;;;;;5.73;5.33;;;19.60;99.90;;;;;;4994838;28;20488;-58
2023/07/15 01:51:40;;;;;;;5.33;4.80;;;19.60;99.90;;;;;;4984065;28;20477;-58
2023/07/15 01:54:08;;;;;;;5.00;4.57;;;19.50;99.90;;;;;;4990944;28;20527;-58
2023/07/15 01:56:37;;;;;;;4.80;4.40;;;19.50;99.90;;;;;;4990943;28;20551;-58
2023/07/15 01:59:06;;;;;;;5.33;4.93;;;19.50;99.90;;;;;;4988145;28;20550;-58
2023/07/15 02:01:34;;;;;;;4.70;4.30;;;19.40;99.90;;;;;;4997460;28;20558;-58
2023/07/15 02:04:02;;;;;;;5.73;5.17;;;19.40;99.90;;;;;;4993791;28;20499;-58
2023/07/15 02:06:30;;;;;;;4.90;4.47;;;19.40;99.90;;;;;;4990545;28;20488;-57
2023/07/15 02:08:58;;;;;;;5.43;4.50;;;19.40;99.90;;;;;;4989214;28;20470;-58
2023/07/15 02:11:26;;;;;;;5.17;4.57;;;19.30;99.90;;;;;;4996125;28;20477;-58
2023/07/15 02:13:54;;;;;;;4.40;4.00;;;19.40;99.90;;;;;;4992849;28;20542;-58
2023/07/15 02:16:24;;;;;;;6.17;5.23;;;19.30;99.90;;;;;;4988459;28;21073;-58
2023/07/15 02:18:52;;;;;;;5.67;4.60;;;19.30;99.90;;;;;;4990448;28;20487;-58
2023/07/15 02:21:20;;;;;;;4.50;4.10;;;19.30;99.90;;;;;;4991914;28;20910;-58
2023/07/15 02:23:48;;;;;;;4.70;4.30;;;19.30;99.90;;;;;;4983853;28;20532;-58
2023/07/15 02:26:16;;;;;;;5.83;4.20;;;19.30;99.90;;;;;;4989035;28;20741;-58
2023/07/15 02:28:45;;;;;;;5.27;4.77;;;19.20;99.90;;;;;;4993286;28;20584;-58
2023/07/15 02:31:13;;;;;;;4.20;3.90;;;19.20;99.90;;;;;;4996406;28;20494;-57
2023/07/15 02:33:42;;;;;;;5.10;4.60;;;19.20;99.90;;;;;;4994957;28;20484;-58
2023/07/15 02:36:11;;;;;;;6.13;5.13;;;19.20;99.90;;;;;;4989559;28;20512;-58
2023/07/15 02:38:40;;;;;;;5.30;4.80;;;19.20;99.90;;;;;;4985639;28;20493;-58
2023/07/15 02:41:08;;;;;;;4.73;4.23;;;19.10;99.90;;;;;;4988465;28;20537;-58
2023/07/15 02:43:36;;;;;;;4.83;4.33;;;19.10;99.90;;;;;;4996925;28;20605;-58
2023/07/15 02:46:04;;;;;;;4.80;4.40;;;19.10;99.90;;;;;;4996329;28;20506;-58
2023/07/15 02:48:32;;;;;;;5.80;4.73;;;19.00;99.90;;;;;;4999982;28;20495;-58
2023/07/15 02:51:02;;;;;;;5.77;5.27;;;19.00;99.90;;;;;;4997887;28;20467;-57
2023/07/15 02:53:29;;;;;;;5.20;4.77;;;19.00;99.90;;;;;;4994389;28;21240;-58
2023/07/15 02:55:58;;;;;;;4.83;4.40;;;18.90;99.90;;;;;;4997138;28;20515;-58
2023/07/15 02:58:25;;;;;;;5.17;4.77;;;19.00;99.90;;;;;;4996557;28;20584;-58
2023/07/15 03:00:53;;;;;;;5.33;4.83;;;18.90;99.90;;;;;;4999871;28;20500;-58
2023/07/15 03:03:21;;;;;;;5.83;4.47;;;18.80;99.90;;;;;;4997868;28;20493;-58
2023/07/15 03:05:50;;;;;;;5.57;4.63;;;18.80;99.90;;;;;;4992713;28;21048;-58
2023/07/15 03:08:20;;;;;;;4.83;4.43;;;18.80;99.90;;;;;;4987574;28;20491;-58
2023/07/15 03:10:49;;;;;;;4.93;4.37;;;18.80;99.90;;;;;;4992887;28;20564;-58
2023/07/15 03:13:17;;;;;;;5.07;4.60;;;18.70;99.90;;;;;;4992264;28;20491;-57
2023/07/15 03:15:46;;;;;;;4.90;4.33;;;18.70;99.90;;;;;;4998152;28;20556;-58
2023/07/15 03:18:14;;;;;;;4.73;4.30;;;18.70;99.90;;;;;;4998978;28;20484;-58
2023/07/15 03:20:42;;;;;;;4.80;4.40;;;18.70;99.90;;;;;;4995027;28;20574;-58
2023/07/15 03:23:10;;;;;;;5.00;4.60;;;18.70;99.90;;;;;;4993066;28;20498;-58
2023/07/15 03:25:39;;;;;;;4.30;3.93;;;18.60;99.90;;;;;;4998814;28;20479;-58
2023/07/15 03:28:07;;;;;;;4.60;4.20;;;18.70;99.90;;;;;;4995112;28;20576;-58
2023/07/15 03:30:35;;;;;;;4.83;4.43;;;18.70;99.90;;;;;;4992668;28;20779;-60
2023/07/15 03:33:03;;;;;;;4.77;4.37;;;18.70;99.90;;;;;;4995749;28;20472;-57
2023/07/15 03:35:31;;;;;;;5.40;4.30;;;18.80;99.90;;;;;;4997093;28;21028;-58
2023/07/15 03:37:59;;;;;;;4.83;4.37;;;18.80;99.90;;;;;;4995128;28;20492;-58
2023/07/15 03:40:27;;;;;;;5.17;4.60;;;18.90;99.90;;;;;;4995140;28;20548;-58
2023/07/15 03:42:57;;;;;;;4.83;4.40;;;18.90;99.90;;;;;;4995783;28;21198;-58
2023/07/15 03:45:25;;;;;;;5.80;5.30;;;18.90;99.90;;;;;;4985028;28;21094;-57
2023/07/15 03:47:53;;;;;;;4.90;4.50;;;18.90;99.90;;;;;;4987300;28;20480;-58
2023/07/15 03:50:21;;;;;;;4.60;4.20;;;19.00;99.90;;;;;;4984210;28;20469;-58
2023/07/15 03:52:49;;;;;;;4.47;4.17;;;19.10;99.90;;;;;;4985572;28;20511;-57
2023/07/15 03:55:17;;;;;;;4.60;4.00;;;19.10;99.90;;;;;;4994704;28;20546;-58
2023/07/15 03:57:45;;;;;;;5.10;4.70;;;19.10;99.90;;;;;;4992618;28;20492;-58
2023/07/15 04:00:17;;;;;;;4.40;4.00;;;19.20;99.90;;;;;;4989458;28;20465;-58
2023/07/15 04:02:48;;;;;;;5.00;4.60;;;19.20;99.90;;;;;;4991418;28;20863;-58
2023/07/15 04:05:16;;;;;;;4.60;4.20;;;19.20;99.90;;;;;;4990474;28;20543;-58
2023/07/15 04:07:44;;;;;;;4.90;4.50;;;19.20;99.90;;;;;;4993123;28;20510;-58
2023/07/15 04:10:13;;;;;;;5.10;4.70;;;19.20;99.90;;;;;;4998657;28;20480;-58
2023/07/15 04:12:41;;;;;;;5.00;4.60;;;19.20;99.90;;;;;;4994564;28;20500;-58
2023/07/15 04:15:09;;;;;;;5.13;4.73;;;19.20;99.90;;;;;;4989271;28;20484;-58
2023/07/15 04:17:39;;;;;;;4.80;4.40;;;19.20;99.90;;;;;;4995081;28;20541;-58
2023/07/15 04:20:16;;;;;;;5.13;4.63;;;19.20;99.90;;;;;;4990515;28;21528;-58
2023/07/15 04:22:44;;;;;;;5.10;4.60;;;19.20;99.90;;;;;;4990354;28;20475;-58
2023/07/15 04:25:14;;;;;;;6.03;4.43;;;19.20;99.90;;;;;;4995124;28;20504;-58
2023/07/15 04:27:42;;;;;;;4.63;4.30;;;19.20;99.90;;;;;;4997242;28;20483;-58
2023/07/15 04:30:11;;;;;;;5.80;5.40;;;19.20;99.90;;;;;;4994289;28;20475;-58
2023/07/15 04:32:41;;;;;;;5.07;4.60;;;19.30;99.90;;;;;;4995177;28;20576;-58
2023/07/15 04:35:09;;;;;;;5.80;4.67;;;19.30;99.90;;;;;;4996206;28;20489;-58
2023/07/15 04:37:38;;;;;;;4.67;4.27;;;19.30;99.90;;;;;;4991561;28;20562;-58
2023/07/15 04:40:08;;;;;;;4.40;4.00;;;19.40;99.90;;;;;;4998131;28;20600;-59
2023/07/15 04:42:36;;;;;;;5.47;4.37;;;19.50;99.90;;;;;;4988930;28;20487;-59
2023/07/15 04:45:04;;;;;;;4.70;4.13;;;19.50;99.90;;;;;;4993665;28;20500;-58
2023/07/15 04:47:34;;;;;;;6.40;4.37;;;19.50;99.90;;;;;;4991913;28;20587;-60
2023/07/15 04:50:05;;;;;;;7.73;4.57;;;19.50;99.90;;;;;;4992478;28;20501;-60
2023/07/15 04:52:32;;;;;;;4.50;4.10;;;19.50;99.90;;;;;;4991380;28;20974;-58
2023/07/15 04:55:00;;;;;;;5.20;4.80;;;19.60;99.90;;;;;;4991592;28;20571;-58
2023/07/15 04:57:28;;;;;;;5.00;4.60;;;19.60;99.90;;;;;;4994188;28;20568;-59
2023/07/15 04:59:57;;;;;;;5.57;4.77;;;19.70;99.90;;;;;;4995586;28;20496;-62
2023/07/15 05:02:25;;;;;;;5.93;4.90;;;19.70;99.90;;;;;;4991364;28;20588;-59
2023/07/15 05:04:53;;;;;;;5.00;4.60;;;19.70;99.90;;;;;;4992823;28;20505;-59
2023/07/15 05:07:22;;;;;;;4.90;4.50;;;19.70;99.90;;;;;;4990466;28;20516;-59
2023/07/15 05:09:50;;;;;;;5.50;5.10;;;19.70;99.90;;;;;;4987271;28;21062;-59
2023/07/15 05:12:19;;;;;;;5.37;4.87;;;19.80;99.90;;;;;;4994402;28;20472;-58
2023/07/15 05:14:47;;;;;;;4.83;4.43;;;19.80;99.90;;;;;;4989036;28;20527;-60
2023/07/15 05:17:15;;;;;;;5.17;4.70;;;19.80;99.90;;;;;;4992796;28;20494;-59
2023/07/15 05:19:43;;;;;;;4.83;4.43;;;19.80;99.90;;;;;;4986031;28;20473;-60
2023/07/15 05:22:12;;;;;;;5.07;4.57;;;19.90;99.90;;;;;;4990825;28;20473;-59
2023/07/15 05:24:41;;;;;;;6.20;4.80;;;19.90;99.90;;;;;;4992227;28;20554;-59
2023/07/15 05:27:09;;;;;;;5.20;4.70;;;20.00;99.90;;;;;;4984075;28;20845;-59
2023/07/15 05:29:37;;;;;;;4.97;4.53;;;20.00;99.90;;;;;;4996456;28;20517;-59
2023/07/15 05:32:06;;;;;;;4.97;4.57;;;20.00;99.90;;;;;;4983692;28;20547;-57
2023/07/15 05:34:34;;;;;;;5.00;4.60;;;20.00;99.90;;;;;;4997565;28;20567;-56
2023/07/15 05:37:02;;;;;;;6.67;4.97;;;20.00;99.90;;;;;;4981641;28;20492;-58
2023/07/15 05:39:30;;;;;;;5.50;5.00;;;20.00;99.90;;;;;;4981732;28;20475;-59
2023/07/15 05:42:00;;;;;;;4.83;4.43;;;20.10;99.90;;;;;;4986216;28;20989;-57
2023/07/15 05:44:28;;;;;;;5.77;4.90;;;20.10;99.90;;;;;;4993942;28;20484;-59
2023/07/15 05:46:56;;;;;;;5.20;4.80;;;20.20;99.90;;;;;;4985699;28;20485;-57
2023/07/15 05:49:24;;;;;;;4.47;4.17;;;20.30;99.90;;;;;;4983141;28;20539;-66
2023/07/15 05:51:52;;;;;;;4.30;3.90;;;20.30;99.90;;;;;;4969019;28;20477;-62
2023/07/15 05:54:20;;;;;;;5.40;4.87;;;20.30;99.90;;;;;;4977037;28;20536;-57
2023/07/15 05:56:48;;;;;;;5.57;5.10;;;20.30;99.90;;;;;;4989313;28;20496;-57
2023/07/15 05:59:17;;;;;;;4.57;4.17;;;20.30;99.90;;;;;;4990597;28;20962;-57
2023/07/15 06:01:46;;;;;;;5.23;4.83;;;20.30;99.90;;;;;;4993914;28;20855;-57
2023/07/15 06:04:15;;;;;;;5.13;4.73;;;20.30;99.90;;;;;;4983973;28;20527;-57
2023/07/15 06:06:43;;;;;;;5.10;4.70;;;20.30;99.90;;;;;;4988035;28;20483;-57
2023/07/15 06:09:11;;;;;;;5.60;4.47;;;20.40;99.90;;;;;;4987798;28;20535;-57
2023/07/15 06:11:39;;;;;;;5.13;4.73;;;20.50;99.90;;;;;;4982139;28;20476;-57
2023/07/15 06:14:07;;;;;;;5.17;4.37;;;20.50;99.90;;;;;;4993137;28;20492;-57
2023/07/15 06:16:36;;;;;;;4.67;4.30;;;20.60;99.90;;;;;;4990417;28;20566;-57
2023/07/15 06:19:04;;;;;;;4.90;4.50;;;20.70;99.90;;;;;;4999398;28;20480;-59
2023/07/15 06:21:32;;;;;;;4.60;4.20;;;20.80;99.90;;;;;;4987582;28;20558;-59
2023/07/15 06:24:00;;;;;;;7.20;4.50;;;20.90;99.90;;;;;;4990292;28;20875;-58
2023/07/15 06:26:28;;;;;;;4.70;4.30;;;20.90;99.90;;;;;;4990649;28;21156;-57
2023/07/15 06:28:56;;;;;;;5.13;4.73;;;21.00;99.90;;;;;;4994255;28;20507;-57
2023/07/15 06:31:24;;;;;;;5.23;4.73;;;21.10;99.90;;;;;;4997638;28;21089;-57
2023/07/15 06:33:54;;;;;;;4.80;4.40;;;21.10;99.90;;;;;;4990418;28;20502;-56
2023/07/15 06:36:22;;;;;;;4.87;4.47;;;21.20;99.90;;;;;;4980641;28;20476;-56
2023/07/15 06:38:50;;;;;;;5.40;4.27;;;21.30;99.90;;;;;;4993629;28;20508;-56
2023/07/15 06:41:18;;;;;;;4.63;4.23;;;21.40;99.90;;;;;;4986405;28;21177;-56
2023/07/15 06:43:46;;;;;;;4.50;4.10;;;21.50;99.90;;;;;;4993883;28;21266;-56
2023/07/15 06:46:14;;;;;;;4.67;4.30;;;21.50;99.90;;;;;;4986696;28;20528;-56
2023/07/15 06:48:44;;;;;;;4.47;4.07;;;21.60;99.90;;;;;;4989443;28;20491;-59
2023/07/15 06:51:14;;;;;;;4.43;4.10;;;21.60;99.90;;;;;;4992764;28;20527;-58
2023/07/15 06:53:43;;;;;;;6.13;4.20;;;21.70;99.90;;;;;;4997064;28;20492;-58
2023/07/15 06:56:11;;;;;;;4.73;4.33;;;21.70;99.90;;;;;;4998144;28;20472;-57
2023/07/15 06:58:47;;;;;;;5.27;4.53;;;21.80;99.90;;;;;;4997004;28;20496;-57
2023/07/15 07:01:15;;;;;;;5.23;4.80;;;21.80;99.90;;;;;;4989941;28;21643;-56
2023/07/15 07:03:45;;;;;;;5.13;4.53;;;21.90;99.90;;;;;;4983830;28;20496;-56
2023/07/15 07:06:15;;;;;;;4.97;4.57;;;22.00;99.90;;;;;;4971839;28;21180;-56
2023/07/15 07:08:43;;;;;;;6.40;4.70;;;22.10;99.90;;;;;;4984361;28;21053;-56
2023/07/15 07:11:11;;;;;;;6.13;4.70;;;22.20;99.90;;;;;;4994379;28;20560;-56
2023/07/15 07:13:39;;;;;;;4.83;4.33;;;22.20;99.90;;;;;;4999570;28;20500;-56
2023/07/15 07:16:08;;;;;;;5.67;4.47;;;22.30;99.90;;;;;;4992798;28;20473;-56
2023/07/15 07:18:36;;;;;;;5.33;4.30;;;22.30;99.90;;;;;;4987956;28;20586;-56
2023/07/15 07:21:04;;;;;;;4.83;4.33;;;22.40;99.90;;;;;;4991601;28;20478;-57
2023/07/15 07:23:34;;;;;;;4.73;4.30;;;22.40;99.90;;;;;;5000992;28;20583;-57
2023/07/15 07:26:02;;;;;;;5.80;4.20;;;22.50;99.90;;;;;;4998822;28;20540;-56
2023/07/15 07:28:41;;;;;;;4.80;4.40;;;22.60;99.90;;;;;;4990145;28;20876;-57
2023/07/15 07:31:09;;;;;;;4.67;4.37;;;22.70;99.90;;;;;;4991769;28;20476;-58
2023/07/15 07:33:38;;;;;;;5.10;4.60;;;22.80;99.90;;;;;;4997039;28;20488;-58
2023/07/15 07:36:06;;;;;;;4.63;4.23;;;22.90;99.90;;;;;;4996167;28;20469;-57
2023/07/15 07:38:35;;;;;;;5.63;4.33;;;23.00;99.90;;;;;;4994728;28;20574;-57
2023/07/15 07:41:05;;;;;;;4.80;4.40;;;23.10;99.90;;;;;;4993206;28;20484;-57
2023/07/15 07:43:33;;;;;;;4.30;3.90;;;23.30;99.90;;;;;;4994489;28;20508;-60
2023/07/15 07:46:02;;;;;;;4.60;4.20;;;23.30;99.90;;;;;;4983584;28;20503;-59
2023/07/15 07:48:30;;;;;;;4.30;3.90;;;23.40;99.90;;;;;;4990203;28;20492;-57
2023/07/15 07:50:59;;;;;;;4.70;4.30;;;23.50;99.90;;;;;;4986940;28;20473;-60
2023/07/15 07:53:27;;;;;;;6.53;4.10;;;23.60;99.90;;;;;;4978938;28;21017;-59
2023/07/15 07:55:57;;;;;;;4.70;4.20;;;23.70;99.90;;;;;;4987127;28;21092;-59
2023/07/15 07:58:25;;;;;;;6.10;4.60;;;23.80;99.90;;;;;;4979714;28;20487;-57
2023/07/15 08:00:53;;;;;;;4.33;3.90;;;23.90;99.90;;;;;;4988421;28;20460;-57
2023/07/15 08:03:21;;;;;;;4.80;4.00;;;24.00;99.90;;;;;;4981793;28;20538;-56
2023/07/15 08:05:50;;;;;;;4.73;3.93;;;24.10;99.90;;;;;;4980829;28;20856;-55
2023/07/15 08:08:18;;;;;;;4.67;4.27;;;24.20;99.90;;;;;;4974231;28;20484;-57
2023/07/15 08:10:47;;;;;;;6.03;4.47;;;24.30;99.90;;;;;;4977509;28;20471;-57
2023/07/15 08:13:16;;;;;;;4.23;3.93;;;24.40;99.90;;;;;;4977784;28;21290;-58
2023/07/15 08:15:44;;;;;;;7.07;4.20;;;24.60;99.90;;;;;;4982359;28;20472;-58
2023/07/15 08:18:12;;;;;;;5.80;3.90;;;24.60;99.90;;;;;;4984520;28;20491;-59
2023/07/15 08:20:42;;;;;;;4.87;4.37;;;24.60;99.90;;;;;;4985253;28;20480;-58
2023/07/15 08:23:10;;;;;;;4.20;3.83;;;24.70;99.90;;;;;;4986225;28;20611;-58
2023/07/15 08:25:38;;;;;;;3.80;3.50;;;24.70;99.90;;;;;;4995406;28;21014;-58
2023/07/15 08:28:07;;;;;;;4.37;4.00;;;24.80;99.90;;;;;;4984270;28;20477;-58
2023/07/15 08:30:36;;;;;;;4.70;4.30;;;24.90;99.90;;;;;;4992650;28;20479;-59
2023/07/15 08:33:05;;;;;;;4.40;4.00;;;25.00;99.90;;;;;;4999546;28;20464;-58
2023/07/15 08:35:34;;;;;;;4.30;4.00;;;25.10;99.90;;;;;;4985810;28;20531;-58
2023/07/15 08:38:02;;;;;;;4.30;3.97;;;25.20;99.90;;;;;;4993982;28;20492;-58
2023/07/15 08:40:34;;;;;;;4.43;3.87;;;25.30;99.90;;;;;;4993099;28;20943;-59
2023/07/15 08:43:04;;;;;;;4.80;4.23;;;25.40;99.90;;;;;;4988290;28;20488;-58
2023/07/15 08:45:36;;;;;;;5.07;3.70;;;25.50;99.90;;;;;;4990995;28;21352;-58
2023/07/15 08:48:06;;;;;;;4.70;4.30;;;25.60;99.90;;;;;;4988473;28;20484;-64
2023/07/15 08:50:35;;;;;;;4.00;3.70;;;25.70;99.90;;;;;;4981775;28;20497;-58
2023/07/15 08:53:04;;;;;;;3.90;3.60;;;25.80;99.90;;;;;;4986302;28;20480;-59
2023/07/15 08:55:32;;;;;;;3.70;3.40;;;25.80;99.90;;;;;;4991069;28;20473;-58
2023/07/15 08:58:01;;;;;;;4.03;3.37;;;25.90;99.90;;;;;;4981067;28;20496;-60
2023/07/15 09:00:29;;;;;;;3.87;3.37;;;25.90;99.90;;;;;;4984507;28;20484;-59
2023/07/15 09:02:58;;;;;;;3.80;3.30;;;26.00;99.90;;;;;;4973074;28;20552;-60
2023/07/15 09:05:26;;;;;;;3.80;3.50;;;26.20;99.90;;;;;;4984073;28;20999;-60
2023/07/15 09:07:56;;;;;;;3.97;3.67;;;26.30;99.90;;;;;;4980028;28;20496;-60
2023/07/15 09:10:24;;;;;;;4.07;3.67;;;26.50;99.90;;;;;;4980125;28;20509;-59
2023/07/15 09:12:54;;;;;;;4.00;3.70;;;26.50;99.90;;;;;;4982990;28;20472;-60
2023/07/15 09:15:22;;;;;;;3.67;3.47;;;26.60;99.90;;;;;;4975053;28;20968;-58
2023/07/15 09:17:54;;;;;;;4.73;3.50;;;26.70;99.90;;;;;;4969882;28;20595;-59
2023/07/15 09:20:26;;;;;;;3.50;3.30;;;26.80;99.90;;;;;;4974644;28;20569;-58
2023/07/15 09:22:57;;;;;;;5.47;4.27;;;26.80;99.90;;;;;;4982338;28;20547;-57
2023/07/15 09:25:26;;;;;;;3.33;3.13;;;27.00;99.90;;;;;;4986572;28;20493;-57
2023/07/15 09:27:55;;;;;;;3.90;3.50;;;27.10;99.90;;;;;;4978392;28;20528;-57
2023/07/15 09:30:23;;;;;;;4.40;4.10;;;27.20;99.90;;;;;;4986493;28;20476;-58
2023/07/15 09:32:51;;;;;;;5.50;3.77;;;27.20;99.90;;;;;;4976199;28;20531;-58
2023/07/15 09:35:20;;;;;;;3.57;3.27;;;27.30;99.90;;;;;;4972097;28;20986;-58
2023/07/15 09:37:51;;;;;;;3.10;2.90;;;27.40;99.40;;;;;;4979917;28;20485;-59
2023/07/15 09:40:19;;;;;;;3.30;3.07;;;27.40;97.90;;;;;;4972610;28;20473;-59
2023/07/15 09:42:52;;;;;;;3.37;3.00;;;27.50;96.40;;;;;;4982144;28;21111;-59
2023/07/15 09:45:34;;;;;;;3.60;3.30;;;27.50;99.10;;;;;;4977427;28;20934;-59
2023/07/15 09:48:04;;;;;;;4.60;3.40;;;27.60;99.10;;;;;;4986502;28;20591;-59
2023/07/15 09:50:33;;;;;;;3.40;3.10;;;27.80;99.80;;;;;;4991739;28;20483;-59
2023/07/15 09:53:04;;;;;;;3.73;3.53;;;27.80;96.60;;;;;;4991294;28;20479;-59
2023/07/15 09:55:33;;;;;;;3.97;3.67;;;27.90;96.80;;;;;;4984234;28;20481;-59
2023/07/15 09:58:10;;;;;;;3.60;3.40;;;28.00;96.40;;;;;;4968021;28;20492;-59
2023/07/15 10:00:45;;;;;;;3.57;3.27;;;28.00;96.80;;;;;;4987545;28;21044;-59
2023/07/15 10:03:19;;;;;;;3.73;3.40;;;28.00;98.40;;;;;;4991501;28;20487;-60
2023/07/15 10:05:48;;;;;;;4.30;3.23;;;28.10;99.90;;;;;;4983248;28;20476;-60
2023/07/15 10:08:17;;;;;;;3.40;3.20;;;28.20;98.80;;;;;;4981066;28;21099;-60
2023/07/15 10:10:45;;;;;;;3.67;3.30;;;28.30;94.60;;;;;;4977292;28;20480;-59
2023/07/15 10:13:14;;;;;;;3.63;3.37;;;28.40;92.70;;;;;;4980994;28;20591;-59
2023/07/15 10:15:44;;;;;;;3.90;3.47;;;28.50;94.60;;;;;;4977999;28;20516;-60
2023/07/15 10:18:13;;;;;;;3.10;2.90;;;28.60;96.00;;;;;;4978437;28;21226;-59
2023/07/15 10:20:43;;;;;;;3.40;3.20;;;28.70;95.40;;;;;;4976098;28;20505;-59
2023/07/15 10:23:11;;;;;;;3.63;3.40;;;28.90;92.10;;;;;;4981455;28;20562;-61
2023/07/15 10:25:43;;;;;;;3.80;3.50;;;28.90;90.80;;;;;;4989424;28;20476;-61
2023/07/15 10:28:13;;;;;;;3.50;3.30;;;29.00;88.40;;;;;;4982879;28;20524;-60
2023/07/15 10:31:12;;;;;;;3.10;2.90;;;29.00;90.20;;;;;;4977522;28;20530;-60
2023/07/15 10:33:57;;;;;;;3.40;3.20;;;29.00;83.90;;;;;;4981753;28;23055;-60
2023/07/15 10:36:40;;;;;;;3.50;3.20;;;29.10;86.30;;;;;;4987673;28;20547;-59
2023/07/15 10:39:16;;;;;;;3.90;3.60;;;29.10;81.40;;;;;;4984034;28;20592;-60
2023/07/15 10:41:46;;;;;;;3.60;3.33;;;29.30;88.70;;;;;;4976721;28;20993;-60
2023/07/15 10:44:22;;;;;;;5.00;3.17;;;29.50;81.10;;;;;;4977025;28;23385;-60
2023/07/15 10:46:52;;;;;;;3.77;3.40;;;29.60;79.20;;;;;;4972002;28;20520;-60
2023/07/15 10:49:21;;;;;;;3.50;3.30;;;29.70;79.00;;;;;;4981120;28;21004;-60
2023/07/15 10:51:52;;;;;;;6.13;3.07;;;29.80;77.10;;;;;;4988266;28;20468;-62
2023/07/15 10:54:22;;;;;;;3.20;3.00;;;29.90;76.00;;;;;;4985851;28;21096;-61
2023/07/15 10:56:52;;;;;;;3.53;2.97;;;29.90;75.40;;;;;;4984487;28;23562;-60
2023/07/15 10:59:22;;;;;;;3.83;3.13;;;29.90;71.20;;;;;;4984416;28;20480;-60
2023/07/15 11:01:50;;;;;;;2.87;2.67;;;29.90;72.70;;;;;;4986006;28;22412;-65
2023/07/15 11:04:20;;;;;;;3.27;3.00;;;29.90;73.70;;;;;;4984932;28;20758;-59
2023/07/15 11:06:49;;;;;;;3.10;2.80;;;29.90;74.70;;;;;;4979008;28;20501;-59
2023/07/15 11:09:17;;;;;;;3.97;3.33;;;29.90;73.80;;;;;;4989198;28;20480;-59
2023/07/15 11:11:46;;;;;;;2.83;2.37;;;30.00;72.60;;;;;;4984698;28;20575;-57
2023/07/15 11:14:24;;;;;;;3.83;2.80;;;30.00;72.70;;;;;;4982410;28;21339;-59
2023/07/15 11:16:53;;;;;;;5.10;2.80;;;30.00;70.00;;;;;;4983949;28;20486;-59
2023/07/15 11:19:23;;;;;;;4.00;3.00;;;30.00;73.80;;;;;;4988222;28;20504;-59
2023/07/15 11:21:53;;;;;;;4.70;3.33;;;30.00;72.60;;;;;;4983739;28;20561;-59
2023/07/15 11:24:22;;;;;;;4.13;2.60;;;30.10;74.60;;;;;;4984412;28;20579;-58
2023/07/15 11:26:50;;;;;;;4.20;2.70;;;30.10;79.10;;;;;;4977096;28;21169;-58
2023/07/15 11:29:20;;;;;;;3.27;2.97;;;30.10;70.80;;;;;;4994494;28;20472;-59
2023/07/15 11:31:50;;;;;;;3.50;2.70;;;30.10;71.40;;;;;;4980054;28;20817;-58
2023/07/15 11:34:19;;;;;;;3.43;2.90;;;30.10;73.90;;;;;;4986094;28;21012;-59
2023/07/15 11:36:48;;;;;;;3.17;2.90;;;30.20;70.30;;;;;;4989625;28;20497;-60
2023/07/15 11:39:17;;;;;;;3.17;2.97;;;30.30;69.80;;;;;;4979278;28;20886;-60
2023/07/15 11:41:45;;;;;;;3.27;2.97;;;30.30;71.50;;;;;;4991075;28;21147;-60
2023/07/15 11:44:16;;;;;;;4.83;2.50;;;30.40;71.80;;;;;;4979293;28;20582;-58
2023/07/15 11:46:45;;;;;;;2.80;2.47;;;30.50;70.40;;;;;;4984609;28;24635;-59
2023/07/15 11:49:21;;;;;;;3.57;2.80;;;30.50;70.20;;;;;;4979350;28;20582;-58
2023/07/15 11:51:50;;;;;;;2.77;2.57;;;30.50;72.40;;;;;;4970976;28;21037;-59
2023/07/15 11:54:18;;;;;;;3.27;2.93;;;30.40;69.00;;;;;;4981507;28;20596;-58
2023/07/15 11:56:47;;;;;;;5.50;2.80;;;30.30;71.20;;;;;;4977917;28;20495;-58
2023/07/15 11:59:27;;;;;;;2.83;2.63;;;30.20;75.00;;;;;;4976173;28;21057;-60
2023/07/15 12:01:57;;;;;;;3.27;3.03;;;30.00;73.00;;;;;;4975986;28;20480;-61
2023/07/15 12:04:29;;;;;;;2.97;2.77;;;29.90;70.90;;;;;;4981624;28;20555;-61
2023/07/15 12:06:58;;;;;;;2.63;2.43;;;29.80;72.70;;;;;;4982559;28;21015;-62
2023/07/15 12:09:26;;;;;;;3.40;3.00;;;29.70;75.20;;;;;;4992867;28;20488;-61
2023/07/15 12:11:55;;;;;;;2.83;2.60;;;29.70;75.00;;;;;;4986830;28;20583;-61
2023/07/15 12:14:24;;;;;;;3.37;3.10;;;29.80;74.00;;;;;;4977263;28;21086;-61
2023/07/15 12:16:58;;;;;;;3.47;3.17;;;29.80;70.60;;;;;;4980460;28;20504;-61
2023/07/15 12:19:31;;;;;;;2.90;2.70;;;29.90;70.10;;;;;;4983765;28;20483;-61
2023/07/15 12:21:59;;;;;;;3.10;2.90;;;29.90;72.40;;;;;;4983592;28;20514;-60
2023/07/15 12:24:27;;;;;;;5.20;2.87;;;29.90;71.80;;;;;;4979692;28;20488;-61
2023/07/15 12:26:55;;;;;;;2.90;2.70;;;29.90;72.70;;;;;;4987273;28;20484;-59
2023/07/15 12:29:23;;;;;;;4.20;2.90;;;29.90;73.60;;;;;;4990569;28;20576;-59
2023/07/15 12:31:51;;;;;;;2.63;2.33;;;29.80;71.90;;;;;;4988552;28;20526;-59
2023/07/15 12:34:19;;;;;;;4.03;2.67;;;29.70;78.00;;;;;;4992139;28;20478;-59
2023/07/15 12:36:48;;;;;;;3.30;2.93;;;29.60;75.20;;;;;;4996947;28;20480;-61
2023/07/15 12:39:16;;;;;;;4.33;2.60;;;29.50;73.90;;;;;;4994538;28;20524;-59
2023/07/15 12:41:45;;;;;;;5.13;3.10;;;29.40;77.80;;;;;;4982042;28;20486;-59
2023/07/15 12:44:13;;;;;;;3.37;2.70;;;29.30;77.70;;;;;;4979392;28;20873;-58
2023/07/15 12:46:41;;;;;;;3.37;3.07;;;29.20;78.10;;;;;;4989484;28;20928;-59
2023/07/15 12:49:09;;;;;;;3.03;2.47;;;29.10;78.60;;;;;;4984980;28;20495;-59
2023/07/15 12:51:37;;;;;;;3.60;2.60;;;29.10;83.90;;;;;;4982579;28;20477;-59
2023/07/15 12:54:06;;;;;;;3.60;2.70;;;29.00;85.40;;;;;;4974774;28;20660;-59
2023/07/15 12:56:34;;;;;;;4.13;2.80;;;29.00;86.90;;;;;;4977576;28;20851;-59
2023/07/15 12:59:03;;;;;;;3.10;2.80;;;29.10;83.90;;;;;;4984309;28;20472;-59